Time;durP1;ratioP1;P1;durP2;ratioP2;P2;SDS_P1;SDS_P2;PMS_P1;PMS_P2;Temp;Humidity;BMP_temperature;BMP_pressure;BME280_temperature;BME280_humidity;BME280_pressure;Samples;Min_cycle;Max_cycle;Signal;HPM_P1;HPM_P2
2021/03/21 00:00:17;;;;;;;8.33;7.33;;;;;21.20;101276.00;;;;2078387;28;20221;-44
2021/03/21 00:01:18;;;;;;;8.82;7.55;;;;;21.20;101276.00;;;;2078340;28;20634;-44
2021/03/21 00:02:18;;;;;;;8.10;7.40;;;;;21.20;101258.00;;;;2078651;28;20209;-44
2021/03/21 00:03:19;;;;;;;8.37;7.47;;;;;21.20;101269.00;;;;2078767;28;20214;-44
2021/03/21 00:04:19;;;;;;;9.23;7.93;;;;;21.10;101268.00;;;;2078388;28;20220;-44
2021/03/21 00:05:20;;;;;;;8.80;7.43;;;;;21.00;101263.00;;;;2078856;28;20455;-44
2021/03/21 00:06:20;;;;;;;7.70;7.00;;;;;21.10;101268.00;;;;2078600;28;20213;-43
2021/03/21 00:07:20;;;;;;;8.80;7.30;;;;;21.10;101256.00;;;;2078908;28;20335;-44
2021/03/21 00:08:25;;;;;;;7.47;6.63;;;;;21.20;101264.00;;;;2077771;28;20214;-44
2021/03/21 00:09:25;;;;;;;9.55;6.72;;;;;21.20;101261.00;;;;2078817;28;20318;-44
2021/03/21 00:10:26;;;;;;;7.93;7.23;;;;;21.20;101252.00;;;;2078589;28;20206;-44
2021/03/21 00:11:26;;;;;;;10.10;7.60;;;;;21.10;101248.00;;;;2079022;28;20206;-44
2021/03/21 00:12:27;;;;;;;7.60;6.90;;;;;21.10;101248.00;;;;2078712;28;20453;-44
2021/03/21 00:13:27;;;;;;;7.50;6.80;;;;;21.20;101250.00;;;;2078779;28;20683;-44
2021/03/21 00:14:31;;;;;;;10.97;7.43;;;;;21.10;101254.00;;;;2078503;28;20232;-44
2021/03/21 00:15:31;;;;;;;8.10;7.10;;;;;21.10;101253.00;;;;2069777;28;20564;-44
2021/03/21 00:16:32;;;;;;;8.37;7.20;;;;;21.10;101237.00;;;;2086080;28;20216;-44
2021/03/21 00:17:32;;;;;;;7.67;6.90;;;;;20.90;101251.00;;;;2084744;28;20710;-44
2021/03/21 00:18:35;;;;;;;7.90;7.10;;;;;21.10;101248.00;;;;2077953;28;20484;-43
2021/03/21 00:19:36;;;;;;;7.90;7.10;;;;;21.10;101246.00;;;;2078860;28;20256;-44
2021/03/21 00:20:36;;;;;;;9.63;7.40;;;;;21.10;101244.00;;;;2078259;28;20234;-43
2021/03/21 00:21:37;;;;;;;8.20;7.30;;;;;21.10;101246.00;;;;2078543;28;20218;-45
2021/03/21 00:22:37;;;;;;;8.03;7.00;;;;;21.10;101237.00;;;;2078519;28;20229;-45
2021/03/21 00:23:38;;;;;;;7.37;6.70;;;;;21.10;101238.00;;;;2078443;28;20585;-44
2021/03/21 00:24:38;;;;;;;8.13;6.73;;;;;21.10;101254.00;;;;2078793;28;22220;-44
2021/03/21 00:25:38;;;;;;;8.00;6.47;;;;;21.10;101238.00;;;;2078983;28;20234;-44
2021/03/21 00:26:39;;;;;;;6.80;6.20;;;;;21.10;101244.00;;;;2078704;28;20226;-44
2021/03/21 00:27:39;;;;;;;7.47;6.50;;;;;21.00;101244.00;;;;2078716;28;20232;-44
2021/03/21 00:28:40;;;;;;;7.93;7.23;;;;;21.00;101249.00;;;;2077431;28;20754;-44
2021/03/21 00:29:41;;;;;;;7.17;6.47;;;;;21.00;101244.00;;;;2078572;28;20214;-44
2021/03/21 00:30:43;;;;;;;7.28;6.57;;;;;21.00;101252.00;;;;2078175;28;20819;-44
2021/03/21 00:31:44;;;;;;;7.60;6.90;;;;;21.00;101239.00;;;;2078758;28;20239;-42
2021/03/21 00:32:44;;;;;;;7.43;6.73;;;;;21.00;101246.00;;;;2077777;28;20710;-45
2021/03/21 00:33:44;;;;;;;7.37;6.67;;;;;21.00;101238.00;;;;2077743;28;20315;-43
2021/03/21 00:34:45;;;;;;;7.37;6.67;;;;;21.00;101244.00;;;;2078655;28;20217;-43
2021/03/21 00:35:45;;;;;;;6.60;6.00;;;;;21.00;101238.00;;;;2078725;28;20599;-44
2021/03/21 00:36:46;;;;;;;8.10;6.27;;;;;21.00;101240.00;;;;2078651;28;20214;-44
2021/03/21 00:37:46;;;;;;;6.67;6.07;;;;;21.00;101245.00;;;;2078856;28;20210;-44
2021/03/21 00:38:48;;;;;;;9.03;6.87;;;;;21.00;101247.00;;;;2077500;28;20220;-44
2021/03/21 00:39:49;;;;;;;6.88;6.28;;;;;21.00;101247.00;;;;2078778;28;20328;-43
2021/03/21 00:40:50;;;;;;;8.80;6.40;;;;;21.00;101247.00;;;;2077154;28;20222;-44
2021/03/21 00:41:50;;;;;;;6.53;5.93;;;;;21.00;101247.00;;;;2078213;28;20202;-44
2021/03/21 00:42:50;;;;;;;7.10;6.20;;;;;21.00;101253.00;;;;2077917;28;20833;-44
2021/03/21 00:43:51;;;;;;;7.43;6.83;;;;;21.00;101252.00;;;;2078855;28;20217;-43
2021/03/21 00:44:51;;;;;;;6.60;5.90;;;;;21.00;101242.00;;;;2078207;28;20222;-44
2021/03/21 00:45:52;;;;;;;6.80;6.20;;;;;21.00;101243.00;;;;2078630;28;20740;-45
2021/03/21 00:46:53;;;;;;;6.47;5.90;;;;;21.00;101252.00;;;;2077927;28;20223;-51
2021/03/21 00:47:53;;;;;;;6.30;5.80;;;;;21.00;101250.00;;;;2078701;28;20352;-42
2021/03/21 00:48:54;;;;;;;7.50;6.87;;;;;21.00;101247.00;;;;2077756;28;20264;-44
2021/03/21 00:49:54;;;;;;;6.63;6.03;;;;;21.00;101247.00;;;;2078736;28;20206;-44
2021/03/21 00:50:55;;;;;;;6.70;6.10;;;;;21.00;101242.00;;;;2078456;28;20206;-44
2021/03/21 00:51:55;;;;;;;7.00;6.33;;;;;21.00;101235.00;;;;2077780;28;20218;-44
2021/03/21 00:52:56;;;;;;;6.30;5.70;;;;;20.90;101242.00;;;;2077485;28;21043;-44
2021/03/21 00:53:56;;;;;;;6.30;5.70;;;;;20.90;101246.00;;;;2078711;28;20210;-44
2021/03/21 00:54:56;;;;;;;6.27;5.77;;;;;20.90;101234.00;;;;2078723;28;20202;-47
2021/03/21 00:55:57;;;;;;;6.87;6.17;;;;;20.90;101239.00;;;;2078603;28;20214;-44
2021/03/21 00:56:57;;;;;;;5.93;5.33;;;;;20.90;101246.00;;;;2078674;28;20240;-43
2021/03/21 00:57:57;;;;;;;5.97;5.37;;;;;20.90;101235.00;;;;2078710;28;20617;-44
2021/03/21 00:58:58;;;;;;;7.10;6.40;;;;;20.90;101236.00;;;;2077314;28;20198;-44
2021/03/21 00:59:58;;;;;;;6.27;5.77;;;;;20.90;101237.00;;;;2078462;28;20210;-44
2021/03/21 01:00:59;;;;;;;6.93;6.33;;;;;20.90;101256.00;;;;2078563;28;20215;-45
2021/03/21 01:02:00;;;;;;;7.13;6.40;;;;;20.90;101242.00;;;;2078693;28;20210;-44
2021/03/21 01:03:00;;;;;;;6.63;6.03;;;;;20.90;101236.00;;;;2078375;28;20489;-44
2021/03/21 01:04:01;;;;;;;6.57;5.83;;;;;20.90;101235.00;;;;2078013;28;20234;-44
2021/03/21 01:05:06;;;;;;;6.75;5.72;;;;;20.90;101227.00;;;;2077807;28;20198;-44
2021/03/21 01:06:06;;;;;;;6.75;6.00;;;;;20.90;101230.00;;;;2078445;28;20214;-44
2021/03/21 01:07:07;;;;;;;5.70;5.20;;;;;20.90;101228.00;;;;2078253;28;20675;-44
2021/03/21 01:08:25;;;;;;;8.23;6.77;;;;;20.90;101226.00;;;;2078643;28;20212;-43
2021/03/21 01:09:26;;;;;;;6.45;5.85;;;;;20.80;101217.00;;;;2078284;28;20579;-50
2021/03/21 01:10:28;;;;;;;6.60;6.00;;;;;20.80;101213.00;;;;2078580;28;20234;-44
2021/03/21 01:11:33;;;;;;;7.10;6.40;;;;;20.90;101218.00;;;;2078706;28;20210;-44
2021/03/21 01:12:33;;;;;;;6.20;5.70;;;;;20.90;101209.00;;;;2080012;28;20283;-43
2021/03/21 01:13:34;;;;;;;6.43;5.83;;;;;20.80;101207.00;;;;2079878;28;20623;-43
2021/03/21 01:14:34;;;;;;;6.83;6.23;;;;;20.90;101203.00;;;;2079873;28;20210;-44
2021/03/21 01:15:34;;;;;;;6.73;6.23;;;;;20.80;101193.00;;;;2080083;28;20226;-44
2021/03/21 01:16:40;;;;;;;7.30;6.70;;;;;20.80;101191.00;;;;2080057;28;20591;-44
2021/03/21 01:17:40;;;;;;;6.82;6.32;;;;;20.80;101190.00;;;;2080210;28;20226;-44
2021/03/21 01:18:40;;;;;;;7.27;6.50;;;;;20.80;101193.00;;;;2079178;28;20580;-44
2021/03/21 01:19:41;;;;;;;6.90;6.30;;;;;20.80;101182.00;;;;2080257;28;20221;-44
2021/03/21 01:20:41;;;;;;;8.03;7.33;;;;;20.80;101185.00;;;;2080131;28;20364;-44
2021/03/21 01:21:44;;;;;;;7.93;7.10;;;;;20.80;101185.00;;;;2079567;28;20691;-43
2021/03/21 01:22:45;;;;;;;7.38;6.78;;;;;20.80;101195.00;;;;2080018;28;20217;-44
2021/03/21 01:23:46;;;;;;;7.60;6.90;;;;;20.80;101186.00;;;;2080241;28;20214;-44
2021/03/21 01:24:46;;;;;;;9.13;7.27;;;;;20.80;101182.00;;;;2080103;28;20218;-44
2021/03/21 01:25:46;;;;;;;7.53;6.83;;;;;20.80;101186.00;;;;2080161;28;20221;-44
2021/03/21 01:26:47;;;;;;;7.40;6.80;;;;;20.80;101189.00;;;;2080142;28;24014;-44
2021/03/21 01:27:47;;;;;;;6.97;6.40;;;;;20.80;101172.00;;;;2079845;28;20305;-44
2021/03/21 01:28:48;;;;;;;7.70;7.00;;;;;20.80;101173.00;;;;2078913;28;20641;-44
2021/03/21 01:29:48;;;;;;;7.70;7.10;;;;;20.80;101177.00;;;;2079758;28;20222;-44
2021/03/21 01:30:49;;;;;;;7.60;6.90;;;;;20.80;101174.00;;;;2079925;28;20214;-44
2021/03/21 01:31:50;;;;;;;7.40;6.75;;;;;20.80;101167.00;;;;2080107;28;20213;-44
2021/03/21 01:32:51;;;;;;;7.70;7.00;;;;;20.80;101149.00;;;;2079894;28;20221;-45
2021/03/21 01:33:52;;;;;;;8.23;7.53;;;;;20.80;101150.00;;;;2080074;28;20238;-44
2021/03/21 01:34:52;;;;;;;8.47;7.77;;;;;20.80;101147.00;;;;2079008;28;20214;-43
2021/03/21 01:35:53;;;;;;;8.33;7.63;;;;;20.80;101150.00;;;;2079027;28;20225;-43
2021/03/21 01:36:53;;;;;;;9.07;8.17;;;;;20.60;101136.00;;;;2079722;28;20214;-43
2021/03/21 01:37:53;;;;;;;7.63;6.93;;;;;20.70;101139.00;;;;2080103;28;20304;-43
2021/03/21 01:38:54;;;;;;;7.70;7.00;;;;;20.70;101135.00;;;;2078914;28;20279;-43
2021/03/21 01:39:55;;;;;;;8.43;7.73;;;;;20.70;101132.00;;;;2080092;28;20321;-43
2021/03/21 01:40:57;;;;;;;8.23;7.50;;;;;20.70;101127.00;;;;2079712;28;20453;-43
2021/03/21 01:42:03;;;;;;;8.57;7.88;;;;;20.70;101123.00;;;;2079972;28;20214;-45
2021/03/21 01:43:03;;;;;;;9.43;8.52;;;;;20.70;101115.00;;;;2079193;28;20253;-44
2021/03/21 01:44:06;;;;;;;9.10;8.20;;;;;20.70;101116.00;;;;2079787;28;20210;-44
2021/03/21 01:45:39;;;;;;;8.45;7.78;;;;;20.70;101108.00;;;;2079614;28;20251;-44
2021/03/21 01:46:42;;;;;;;9.43;8.63;;;;;20.70;101104.00;;;;2079706;28;20210;-43
2021/03/21 01:47:42;;;;;;;8.57;7.88;;;;;20.70;101094.00;;;;2079154;28;20683;-44
2021/03/21 01:48:49;;;;;;;8.70;7.90;;;;;20.70;101102.00;;;;2061696;28;20333;-44
2021/03/21 01:49:49;;;;;;;8.20;7.50;;;;;20.70;101093.00;;;;2071900;28;20243;-44
2021/03/21 01:51:21;;;;;;;8.03;7.43;;;;;20.70;101092.00;;;;2079598;28;20222;-45
2021/03/21 01:52:34;;;;;;;8.82;8.13;;;;;20.70;101100.00;;;;2078027;28;20226;-46
2021/03/21 01:53:36;;;;;;;9.50;8.70;;;;;20.70;101089.00;;;;2072313;28;20230;-46
2021/03/21 01:54:36;;;;;;;8.93;8.15;;;;;20.70;101096.00;;;;2079125;28;20213;-47
2021/03/21 01:55:37;;;;;;;9.30;8.60;;;;;20.70;101096.00;;;;2079014;28;20733;-45
2021/03/21 01:56:38;;;;;;;9.97;9.17;;;;;20.70;101100.00;;;;2079237;28;20221;-46
2021/03/21 01:57:38;;;;;;;9.60;8.80;;;;;20.70;101104.00;;;;2081170;28;20237;-46
2021/03/21 01:58:38;;;;;;;9.73;8.83;;;;;20.70;101109.00;;;;2078207;28;20218;-45
2021/03/21 01:59:39;;;;;;;9.50;8.70;;;;;20.60;101105.00;;;;2070692;28;20610;-45
2021/03/21 02:00:39;;;;;;;9.90;9.00;;;;;20.60;101111.00;;;;2087056;28;20209;-45
2021/03/21 02:01:40;;;;;;;9.67;8.90;;;;;20.70;101114.00;;;;2087494;28;20217;-45
2021/03/21 02:02:40;;;;;;;10.20;9.27;;;;;20.70;101104.00;;;;2087366;28;20221;-45
2021/03/21 02:03:41;;;;;;;9.17;8.40;;;;;20.70;101108.00;;;;2087614;28;20885;-42
2021/03/21 02:04:42;;;;;;;9.37;8.47;;;;;20.60;101106.00;;;;2087641;28;20599;-43
2021/03/21 02:05:42;;;;;;;9.53;8.73;;;;;20.60;101106.00;;;;2087206;28;20448;-42
2021/03/21 02:07:13;;;;;;;10.17;9.37;;;;;20.60;101103.00;;;;2087354;28;20216;-44
2021/03/21 02:08:34;;;;;;;9.73;8.93;;;;;20.60;101112.00;;;;2087629;28;20611;-45
2021/03/21 02:10:13;;;;;;;8.93;8.13;;;;;20.60;101114.00;;;;2078738;28;20220;-42
2021/03/21 02:11:28;;;;;;;9.68;8.88;;;;;20.60;101109.00;;;;2076890;28;20866;-47
2021/03/21 02:12:40;;;;;;;9.93;8.93;;;;;20.60;101112.00;;;;2080841;28;20217;-43
2021/03/21 02:13:46;;;;;;;9.93;9.10;;;;;20.40;101113.00;;;;2087417;28;20218;-43
2021/03/21 02:14:58;;;;;;;10.00;9.10;;;;;20.60;101110.00;;;;2087984;28;20213;-42
2021/03/21 02:16:10;;;;;;;9.85;9.05;;;;;20.60;101110.00;;;;2087760;28;20233;-44
2021/03/21 02:17:32;;;;;;;10.02;9.13;;;;;20.60;101108.00;;;;2078837;28;20668;-43
2021/03/21 02:18:44;;;;;;;9.25;8.38;;;;;20.60;101102.00;;;;2076748;28;20244;-47
2021/03/21 02:20:06;;;;;;;10.75;9.85;;;;;20.60;101111.00;;;;2087067;28;20262;-43
2021/03/21 02:21:25;;;;;;;9.45;8.65;;;;;20.50;101108.00;;;;2083621;28;20209;-42
2021/03/21 02:22:30;;;;;;;9.48;8.70;;;;;20.60;101100.00;;;;2087498;28;20232;-43
2021/03/21 02:23:52;;;;;;;9.55;8.75;;;;;20.60;101087.00;;;;2077867;28;20229;-42
2021/03/21 02:25:07;;;;;;;9.70;8.90;;;;;20.60;101089.00;;;;2082010;28;20296;-43
2021/03/21 02:26:19;;;;;;;10.20;9.30;;;;;20.60;101088.00;;;;2086702;28;20205;-45
2021/03/21 02:27:50;;;;;;;9.60;8.80;;;;;20.50;101087.00;;;;2075108;28;20215;-46
2021/03/21 02:29:28;;;;;;;10.90;10.00;;;;;20.50;101087.00;;;;2069243;28;20202;-46
2021/03/21 02:30:34;;;;;;;10.07;9.27;;;;;20.30;101089.00;;;;2078985;28;20634;-44
2021/03/21 02:31:41;;;;;;;10.50;9.60;;;;;20.60;101073.00;;;;2070604;28;21093;-44
2021/03/21 02:32:52;;;;;;;10.23;9.43;;;;;20.50;101089.00;;;;2063329;28;20699;-46
2021/03/21 02:34:17;;;;;;;10.90;9.80;;;;;20.50;101081.00;;;;2065524;28;20270;-47
2021/03/21 02:35:31;;;;;;;9.60;8.80;;;;;20.50;101083.00;;;;2064947;28;20308;-46
2021/03/21 02:36:38;;;;;;;10.57;9.75;;;;;20.50;101070.00;;;;2066821;28;20214;-43
2021/03/21 02:37:47;;;;;;;10.75;9.85;;;;;20.50;101084.00;;;;2063764;28;20229;-46
2021/03/21 02:38:51;;;;;;;11.38;10.18;;;;;20.50;101082.00;;;;2055950;28;20215;-42
2021/03/21 02:40:16;;;;;;;10.32;9.50;;;;;20.50;101073.00;;;;2063713;28;20237;-43
2021/03/21 02:41:23;;;;;;;9.98;9.07;;;;;20.50;101074.00;;;;2078600;28;20213;-45
2021/03/21 02:42:35;;;;;;;10.93;10.02;;;;;20.50;101074.00;;;;2078575;28;20214;-45
2021/03/21 02:43:40;;;;;;;10.30;9.50;;;;;20.50;101068.00;;;;2071964;28;20222;-43
2021/03/21 02:44:45;;;;;;;9.13;8.43;;;;;20.50;101057.00;;;;2062846;28;20254;-47
2021/03/21 02:45:49;;;;;;;10.30;9.50;;;;;20.50;101065.00;;;;2062891;28;20219;-43
2021/03/21 02:46:57;;;;;;;9.52;8.63;;;;;20.50;101064.00;;;;2071360;28;20211;-43
2021/03/21 02:48:35;;;;;;;10.20;9.30;;;;;20.50;101059.00;;;;2062251;28;20250;-42
2021/03/21 02:49:42;;;;;;;9.38;8.65;;;;;20.50;101059.00;;;;2063997;28;20215;-42
2021/03/21 02:51:11;;;;;;;10.70;9.80;;;;;20.50;101064.00;;;;2063799;28;20247;-47
2021/03/21 02:52:18;;;;;;;9.25;8.50;;;;;20.50;101068.00;;;;2066011;28;20209;-42
2021/03/21 02:53:25;;;;;;;10.88;9.98;;;;;20.50;101060.00;;;;2056734;28;20287;-45
2021/03/21 02:54:27;;;;;;;10.23;9.43;;;;;20.40;101053.00;;;;2064712;28;20231;-44
2021/03/21 02:55:32;;;;;;;9.50;8.80;;;;;20.40;101051.00;;;;2070281;28;20219;-47
2021/03/21 02:56:33;;;;;;;9.30;8.60;;;;;20.40;101053.00;;;;2070606;28;20293;-46
2021/03/21 02:57:40;;;;;;;8.97;8.27;;;;;20.40;101051.00;;;;2070374;28;20226;-43
2021/03/21 02:58:43;;;;;;;8.65;7.93;;;;;20.40;101046.00;;;;2077219;28;20232;-47
2021/03/21 02:59:51;;;;;;;9.65;8.95;;;;;20.40;101035.00;;;;2062743;28;20227;-46
2021/03/21 03:00:57;;;;;;;8.98;8.27;;;;;20.40;101047.00;;;;2062256;28;20237;-42
2021/03/21 03:02:07;;;;;;;10.00;9.20;;;;;20.40;101041.00;;;;2055601;28;20227;-43
2021/03/21 03:03:08;;;;;;;10.05;9.25;;;;;20.40;101042.00;;;;2063096;28;20220;-43
2021/03/21 03:04:12;;;;;;;8.27;7.68;;;;;20.40;101045.00;;;;2062275;28;20838;-42
2021/03/21 03:05:18;;;;;;;10.00;9.10;;;;;20.40;101047.00;;;;2070098;28;20272;-44
2021/03/21 03:06:28;;;;;;;8.38;7.78;;;;;20.40;101036.00;;;;2070880;28;20218;-43
2021/03/21 03:07:34;;;;;;;8.63;7.93;;;;;20.40;101050.00;;;;2061795;28;20215;-42
2021/03/21 03:09:13;;;;;;;8.90;8.20;;;;;20.40;101044.00;;;;2063083;28;20227;-46
2021/03/21 03:10:18;;;;;;;9.20;8.40;;;;;20.40;101041.00;;;;2073091;28;20211;-48
2021/03/21 03:11:23;;;;;;;8.60;7.90;;;;;20.40;101043.00;;;;2068249;28;20230;-46
2021/03/21 03:12:34;;;;;;;9.00;8.30;;;;;20.40;101044.00;;;;2063036;28;20238;-47
2021/03/21 03:13:36;;;;;;;9.30;8.50;;;;;20.40;101040.00;;;;2069947;28;20230;-44
2021/03/21 03:14:38;;;;;;;9.13;8.40;;;;;20.40;101045.00;;;;2070026;28;20573;-43
2021/03/21 03:15:39;;;;;;;8.93;8.23;;;;;20.40;101040.00;;;;2062192;28;20249;-43
2021/03/21 03:17:01;;;;;;;9.90;9.10;;;;;20.40;101040.00;;;;2062603;28;20656;-44
2021/03/21 03:18:20;;;;;;;8.95;8.25;;;;;20.40;101044.00;;;;2056823;28;20459;-44
2021/03/21 03:19:28;;;;;;;9.73;8.85;;;;;20.40;101046.00;;;;2065262;28;20210;-44
2021/03/21 03:20:50;;;;;;;9.60;8.80;;;;;20.40;101048.00;;;;2070206;28;20217;-43
2021/03/21 03:21:54;;;;;;;9.32;8.57;;;;;20.40;101052.00;;;;2056356;28;20226;-43
2021/03/21 03:22:58;;;;;;;10.90;10.00;;;;;20.40;101037.00;;;;2063022;28;20206;-43
2021/03/21 03:24:25;;;;;;;9.20;8.40;;;;;20.40;101051.00;;;;2070151;28;20211;-44
2021/03/21 03:25:43;;;;;;;9.73;8.93;;;;;20.30;101039.00;;;;2064718;28;20253;-45
2021/03/21 03:26:48;;;;;;;9.25;8.45;;;;;20.30;101037.00;;;;2056395;28;20315;-43
2021/03/21 03:27:55;;;;;;;9.85;9.05;;;;;20.30;101050.00;;;;2050677;28;20291;-43
2021/03/21 03:29:19;;;;;;;10.00;9.10;;;;;20.40;101045.00;;;;2059066;28;20199;-46
2021/03/21 03:30:26;;;;;;;9.27;8.55;;;;;20.30;101046.00;;;;2064843;28;20226;-46
2021/03/21 03:31:32;;;;;;;10.02;9.20;;;;;20.30;101040.00;;;;2059147;28;20216;-44
2021/03/21 03:32:32;;;;;;;9.65;8.85;;;;;20.30;101030.00;;;;2063109;28;20207;-43
2021/03/21 03:33:32;;;;;;;8.97;8.27;;;;;20.30;101034.00;;;;2070117;28;20211;-42
2021/03/21 03:34:33;;;;;;;10.27;9.40;;;;;20.30;101030.00;;;;2061877;28;20993;-43
2021/03/21 03:35:33;;;;;;;9.83;9.03;;;;;20.30;101032.00;;;;2061899;28;20745;-49
2021/03/21 03:36:34;;;;;;;10.17;9.37;;;;;20.30;101041.00;;;;2062108;28;20306;-50
2021/03/21 03:37:34;;;;;;;9.90;9.10;;;;;20.30;101035.00;;;;2070150;28;20642;-47
2021/03/21 03:38:35;;;;;;;10.03;9.23;;;;;20.30;101041.00;;;;2069029;28;20245;-44
2021/03/21 03:39:38;;;;;;;9.75;8.95;;;;;20.30;101035.00;;;;2070642;28;20289;-46
2021/03/21 03:40:39;;;;;;;10.88;9.98;;;;;20.30;101030.00;;;;2070606;28;20296;-46
2021/03/21 03:41:41;;;;;;;9.73;8.93;;;;;20.30;101037.00;;;;2069926;28;20884;-43
2021/03/21 03:42:47;;;;;;;9.95;9.15;;;;;20.30;101043.00;;;;2070252;28;20479;-46
2021/03/21 03:43:56;;;;;;;10.82;9.93;;;;;20.30;101026.00;;;;2069734;28;20226;-43
2021/03/21 03:45:08;;;;;;;11.05;10.15;;;;;20.30;101037.00;;;;2070568;28;20273;-47
2021/03/21 03:46:18;;;;;;;10.48;9.68;;;;;20.30;101036.00;;;;2070792;28;20272;-43
2021/03/21 03:47:21;;;;;;;11.18;10.20;;;;;20.30;101028.00;;;;2070768;28;20629;-48
2021/03/21 03:48:40;;;;;;;10.25;9.45;;;;;20.30;101028.00;;;;2068725;28;20699;-49
2021/03/21 03:50:21;;;;;;;9.50;8.80;;;;;20.30;101025.00;;;;2069982;28;20256;-44
2021/03/21 03:51:29;;;;;;;10.82;10.02;;;;;20.30;101026.00;;;;2057426;28;20627;-43
2021/03/21 03:52:44;;;;;;;9.82;8.93;;;;;20.30;101025.00;;;;2069009;28;20218;-42
2021/03/21 03:54:00;;;;;;;10.93;10.02;;;;;20.30;101022.00;;;;2070864;28;20222;-45
2021/03/21 03:55:22;;;;;;;11.10;10.10;;;;;20.30;101023.00;;;;2070697;28;20215;-47
2021/03/21 03:56:29;;;;;;;10.38;9.57;;;;;20.30;101024.00;;;;2070349;28;20587;-47
2021/03/21 03:57:50;;;;;;;9.60;8.80;;;;;20.20;101021.00;;;;2069829;28;20256;-43
2021/03/21 03:59:22;;;;;;;10.25;9.45;;;;;20.20;101026.00;;;;2065771;28;20627;-43
2021/03/21 04:00:38;;;;;;;9.32;8.52;;;;;20.30;101020.00;;;;2078034;28;20206;-48
2021/03/21 04:01:44;;;;;;;9.23;8.52;;;;;20.20;101022.00;;;;2078035;28;20606;-45
2021/03/21 04:02:54;;;;;;;10.23;9.45;;;;;20.20;101021.00;;;;2072152;28;20222;-47
2021/03/21 04:03:56;;;;;;;9.88;8.98;;;;;20.20;101031.00;;;;2071412;28;20214;-49
2021/03/21 04:05:18;;;;;;;10.13;9.32;;;;;20.20;101018.00;;;;2078227;28;20286;-45
2021/03/21 04:06:42;;;;;;;9.00;8.30;;;;;20.20;101024.00;;;;2078684;28;20217;-47
2021/03/21 04:07:48;;;;;;;9.15;8.45;;;;;20.20;101026.00;;;;2077574;28;20217;-45
2021/03/21 04:09:02;;;;;;;10.20;9.40;;;;;20.20;101032.00;;;;2076857;28;20297;-42
2021/03/21 04:10:08;;;;;;;8.88;8.18;;;;;20.20;101034.00;;;;2077891;28;20220;-43
2021/03/21 04:11:50;;;;;;;9.43;8.73;;;;;20.20;101035.00;;;;2062472;28;20211;-42
2021/03/21 04:13:01;;;;;;;9.15;8.40;;;;;20.20;101032.00;;;;2059071;28;20206;-46
2021/03/21 04:14:06;;;;;;;9.23;8.52;;;;;20.20;101029.00;;;;2071399;28;20300;-43
2021/03/21 04:15:12;;;;;;;9.07;8.27;;;;;20.20;101036.00;;;;2055238;28;20379;-42
2021/03/21 04:16:16;;;;;;;8.82;8.13;;;;;20.20;101022.00;;;;2054848;28;20223;-43
2021/03/21 04:17:41;;;;;;;9.18;8.45;;;;;20.20;101028.00;;;;2070435;28;20210;-43
2021/03/21 04:18:52;;;;;;;8.45;7.78;;;;;20.20;101024.00;;;;2077413;28;20312;-46
2021/03/21 04:19:54;;;;;;;8.98;8.27;;;;;20.20;101025.00;;;;2077747;28;20214;-43
2021/03/21 04:21:23;;;;;;;9.35;8.65;;;;;20.20;101030.00;;;;2070825;28;20301;-45
2021/03/21 04:22:25;;;;;;;8.60;7.90;;;;;20.20;101017.00;;;;2072539;28;20214;-45
2021/03/21 04:23:41;;;;;;;8.63;7.93;;;;;20.20;101029.00;;;;2061945;28;20226;-43
2021/03/21 04:24:56;;;;;;;8.90;8.20;;;;;20.20;101029.00;;;;2058087;28;20243;-42
2021/03/21 04:26:01;;;;;;;9.40;8.60;;;;;20.20;101043.00;;;;2066768;28;20268;-43
2021/03/21 04:27:07;;;;;;;9.90;9.15;;;;;20.20;101030.00;;;;2062571;28;20250;-43
2021/03/21 04:28:14;;;;;;;9.02;8.32;;;;;20.20;101024.00;;;;2070714;28;20203;-46
2021/03/21 04:29:27;;;;;;;8.13;7.50;;;;;20.20;101033.00;;;;2061827;28;20223;-44
2021/03/21 04:30:38;;;;;;;9.07;8.35;;;;;20.20;101034.00;;;;2064974;28;20215;-45
2021/03/21 04:31:39;;;;;;;8.20;7.50;;;;;20.20;101030.00;;;;2063027;28;20971;-43
2021/03/21 04:32:44;;;;;;;8.80;8.10;;;;;20.20;101029.00;;;;2061376;28;20223;-47
2021/03/21 04:33:47;;;;;;;8.10;7.50;;;;;20.20;101024.00;;;;2062380;28;20508;-45
2021/03/21 04:34:52;;;;;;;7.97;7.38;;;;;20.20;101028.00;;;;2062659;28;20704;-46
2021/03/21 04:36:09;;;;;;;7.88;7.22;;;;;20.20;101027.00;;;;2070380;28;20309;-45
2021/03/21 04:37:10;;;;;;;8.63;8.02;;;;;20.20;101020.00;;;;2063589;28;20632;-45
2021/03/21 04:38:14;;;;;;;8.20;7.60;;;;;20.20;101023.00;;;;2055388;28;20216;-45
2021/03/21 04:39:19;;;;;;;7.90;7.30;;;;;20.10;101021.00;;;;2061613;28;20237;-45
2021/03/21 04:40:19;;;;;;;7.95;7.35;;;;;20.10;101017.00;;;;2070164;28;20219;-45
2021/03/21 04:41:29;;;;;;;8.10;7.43;;;;;20.10;101033.00;;;;2077857;28;20738;-45
2021/03/21 04:42:49;;;;;;;8.45;7.85;;;;;20.10;101016.00;;;;2069557;28;20661;-46
2021/03/21 04:44:18;;;;;;;8.35;7.65;;;;;20.20;101024.00;;;;2073363;28;20228;-45
2021/03/21 04:45:20;;;;;;;8.18;7.57;;;;;20.10;101016.00;;;;2078398;28;20263;-45
2021/03/21 04:46:26;;;;;;;8.30;7.68;;;;;20.10;101012.00;;;;2077840;28;20222;-45
2021/03/21 04:47:30;;;;;;;8.82;8.13;;;;;20.10;101018.00;;;;2071936;28;20699;-46
2021/03/21 04:48:30;;;;;;;8.13;7.47;;;;;20.10;101011.00;;;;2078881;28;20605;-46
2021/03/21 04:49:31;;;;;;;7.50;7.00;;;;;20.10;101009.00;;;;2079708;28;20210;-45
2021/03/21 04:50:32;;;;;;;8.60;7.90;;;;;20.10;100996.00;;;;2079676;28;20206;-46
2021/03/21 04:51:35;;;;;;;8.83;8.13;;;;;20.10;101021.00;;;;2079575;28;20216;-45
2021/03/21 04:52:44;;;;;;;7.35;6.75;;;;;20.10;101017.00;;;;2071530;28;20547;-45
2021/03/21 04:54:00;;;;;;;8.50;7.80;;;;;20.10;101010.00;;;;2072619;28;20275;-45
2021/03/21 04:55:02;;;;;;;8.25;7.55;;;;;20.10;101021.00;;;;2073341;28;20575;-45
2021/03/21 04:56:05;;;;;;;8.38;7.78;;;;;20.10;101023.00;;;;2079621;28;20214;-45
2021/03/21 04:57:32;;;;;;;7.60;7.05;;;;;20.10;101020.00;;;;2079633;28;20222;-45
2021/03/21 04:58:42;;;;;;;9.10;8.40;;;;;20.10;101018.00;;;;2068635;28;20210;-46
2021/03/21 04:59:43;;;;;;;8.20;7.60;;;;;20.10;100964.00;;;;2071144;28;20210;-45
2021/03/21 05:00:46;;;;;;;8.37;7.77;;;;;20.10;101015.00;;;;2055293;28;20802;-45
2021/03/21 05:02:01;;;;;;;8.65;7.95;;;;;20.10;101018.00;;;;2062564;28;20211;-45
2021/03/21 05:03:27;;;;;;;8.07;7.47;;;;;20.10;101015.00;;;;2064847;28;20222;-45
2021/03/21 05:04:31;;;;;;;8.07;7.47;;;;;20.00;101021.00;;;;2065930;28;20205;-47
2021/03/21 05:05:34;;;;;;;7.85;7.25;;;;;20.10;101018.00;;;;2074550;28;20292;-45
2021/03/21 05:06:55;;;;;;;8.00;7.20;;;;;20.10;101023.00;;;;2063265;28;20266;-45
2021/03/21 05:08:01;;;;;;;7.75;7.18;;;;;20.10;101018.00;;;;2068804;28;20289;-45
2021/03/21 05:09:03;;;;;;;8.30;7.60;;;;;20.10;101009.00;;;;2078243;28;20214;-45
2021/03/21 05:10:27;;;;;;;7.68;6.97;;;;;20.00;101008.00;;;;2066601;28;21175;-45
2021/03/21 05:11:37;;;;;;;6.90;6.40;;;;;20.10;101017.00;;;;2070385;28;20288;-45
2021/03/21 05:12:49;;;;;;;6.93;6.43;;;;;20.10;101013.00;;;;2066807;28;20650;-45
2021/03/21 05:13:55;;;;;;;7.95;7.35;;;;;20.10;101015.00;;;;2058531;28;20219;-45
2021/03/21 05:15:23;;;;;;;7.00;6.50;;;;;20.10;101014.00;;;;2072421;28;20226;-46
2021/03/21 05:16:37;;;;;;;7.13;6.55;;;;;20.00;101006.00;;;;2071456;28;20985;-45
2021/03/21 05:17:43;;;;;;;7.60;7.00;;;;;20.10;101015.00;;;;2059463;28;20227;-45
2021/03/21 05:18:50;;;;;;;7.95;7.28;;;;;20.00;101014.00;;;;2071179;28;20219;-45
2021/03/21 05:20:04;;;;;;;7.50;6.95;;;;;20.00;101007.00;;;;2079105;28;20237;-46
2021/03/21 05:21:28;;;;;;;6.75;6.25;;;;;20.00;101013.00;;;;2072790;28;20218;-46
2021/03/21 05:23:00;;;;;;;6.80;6.30;;;;;20.00;101019.00;;;;2067235;28;20241;-45
2021/03/21 05:24:03;;;;;;;7.45;6.85;;;;;20.00;101005.00;;;;2073012;28;20210;-46
2021/03/21 05:25:23;;;;;;;7.22;6.60;;;;;20.00;101001.00;;;;2064579;28;20207;-46
2021/03/21 05:26:27;;;;;;;7.10;6.50;;;;;20.00;101008.00;;;;2060252;28;20225;-45
2021/03/21 05:27:36;;;;;;;7.63;7.03;;;;;20.00;101015.00;;;;2064828;28;20266;-45
2021/03/21 05:28:58;;;;;;;7.22;6.63;;;;;20.00;101010.00;;;;2064600;28;20219;-45
2021/03/21 05:30:26;;;;;;;6.57;6.07;;;;;20.00;101006.00;;;;2077153;28;20217;-45
2021/03/21 05:31:27;;;;;;;6.82;6.32;;;;;20.00;100998.00;;;;2086105;28;20213;-45